createdAt,value
2023-03-02T00:02:02.080Z,4.40
2023-03-02T00:04:34.612Z,7.50
2023-03-02T00:07:10.364Z,4.50
2023-03-02T00:09:38.422Z,1.50
2023-03-02T00:12:11.086Z,7.00
2023-03-02T00:14:44.112Z,9.25
2023-03-02T00:17:12.208Z,8.50
2023-03-02T00:19:40.339Z,8.00
2023-03-02T00:22:10.087Z,4.50
2023-03-02T00:24:38.808Z,9.00
2023-03-02T00:27:11.464Z,7.50
2023-03-02T00:29:39.419Z,9.75
2023-03-02T00:32:09.174Z,5.50
2023-03-02T00:34:37.248Z,6.00
2023-03-02T00:37:05.291Z,3.00
2023-03-02T00:39:33.316Z,8.50
2023-03-02T00:42:01.366Z,7.00
2023-03-02T00:44:29.581Z,10.60
2023-03-02T00:46:57.644Z,6.75
2023-03-02T00:49:27.095Z,7.00
2023-03-02T00:51:55.124Z,8.00
2023-03-02T00:54:23.080Z,6.25
2023-03-02T00:56:50.990Z,7.50
2023-03-02T00:59:27.296Z,7.00
2023-03-02T01:01:58.312Z,9.25
2023-03-02T01:04:31.028Z,5.00
2023-03-02T01:06:59.093Z,5.50
2023-03-02T01:09:27.091Z,7.50
2023-03-02T01:11:55.093Z,8.75
2023-03-02T01:14:23.222Z,6.40
2023-03-02T01:16:51.314Z,9.20
2023-03-02T01:19:19.501Z,7.00
2023-03-02T01:21:49.063Z,4.40
2023-03-02T01:24:17.114Z,7.20
2023-03-02T01:26:45.098Z,11.75
2023-03-02T01:29:13.059Z,9.00
2023-03-02T01:31:41.090Z,6.40
2023-03-02T01:34:09.354Z,8.20
2023-03-02T01:36:37.387Z,7.40
2023-03-02T01:39:06.859Z,8.80
2023-03-02T01:42:15.241Z,3.80
2023-03-02T01:44:44.742Z,6.40
2023-03-02T01:47:19.048Z,11.00
2023-03-02T01:49:50.001Z,8.25
2023-03-02T01:52:18.498Z,6.00
2023-03-02T01:54:49.954Z,4.00
2023-03-02T01:57:21.390Z,7.75
2023-03-02T01:59:49.768Z,6.00
2023-03-02T02:02:17.778Z,3.00
2023-03-02T02:04:46.449Z,5.00
2023-03-02T02:07:14.476Z,7.00
2023-03-02T02:09:45.053Z,6.60
2023-03-02T02:12:15.905Z,7.00
2023-03-02T02:14:43.897Z,9.00
2023-03-02T02:17:12.398Z,11.00
2023-03-02T02:19:48.712Z,6.00
2023-03-02T02:22:22.520Z,10.75
2023-03-02T02:24:51.485Z,7.40
2023-03-02T02:27:20.824Z,9.75
2023-03-02T02:29:50.384Z,8.75
2023-03-02T02:32:19.358Z,6.00
2023-03-02T02:34:51.093Z,9.00
2023-03-02T02:37:24.294Z,9.25
2023-03-02T02:39:52.711Z,8.00
2023-03-02T02:42:25.022Z,5.60
2023-03-02T02:44:53.598Z,6.25
2023-03-02T02:47:22.627Z,7.50
2023-03-02T02:49:53.320Z,10.50
2023-03-02T02:52:22.479Z,5.00
2023-03-02T02:54:51.411Z,6.75
2023-03-02T02:57:19.534Z,9.25
2023-03-02T02:59:49.868Z,6.25
2023-03-02T03:02:20.929Z,7.25
2023-03-02T03:04:51.433Z,9.00
2023-03-02T03:07:22.549Z,6.25
2023-03-02T03:09:52.554Z,9.50
2023-03-02T03:12:23.978Z,7.00
2023-03-02T03:14:53.368Z,5.00
2023-03-02T03:17:21.738Z,9.00
2023-03-02T03:19:49.859Z,6.50
2023-03-02T03:22:18.162Z,6.50
2023-03-02T03:24:48.026Z,7.50
2023-03-02T03:27:16.871Z,8.75
2023-03-02T03:29:46.986Z,9.00
2023-03-02T03:32:16.520Z,8.00
2023-03-02T03:34:44.539Z,7.00
2023-03-02T03:37:14.341Z,12.00
2023-03-02T03:39:42.468Z,8.50
2023-03-02T03:42:10.608Z,1.50
2023-03-02T03:44:38.554Z,10.00
2023-03-02T03:47:06.898Z,7.00
2023-03-02T03:49:36.472Z,13.00
2023-03-02T03:52:04.842Z,7.50
2023-03-02T03:54:33.005Z,6.25
2023-03-02T03:57:01.000Z,4.50
2023-03-02T03:59:29.130Z,2.75
2023-03-02T04:01:58.418Z,9.00
2023-03-02T04:04:28.007Z,9.50
2023-03-02T04:06:57.432Z,8.50
2023-03-02T04:09:25.745Z,9.25
2023-03-02T04:11:54.971Z,0.00
2023-03-02T04:14:23.707Z,8.75
2023-03-02T04:16:51.795Z,7.50
2023-03-02T04:19:22.393Z,7.50
2023-03-02T04:21:51.871Z,8.00
2023-03-02T04:24:23.393Z,8.25
2023-03-02T04:26:51.821Z,4.50
2023-03-02T04:29:19.935Z,8.25
2023-03-02T04:31:48.729Z,6.50
2023-03-02T04:34:17.450Z,10.00
2023-03-02T04:36:45.855Z,7.50
2023-03-02T04:39:15.061Z,6.00
2023-03-02T04:41:44.453Z,11.50
2023-03-02T04:44:12.625Z,6.75
2023-03-02T04:46:44.158Z,9.50
2023-03-02T04:49:12.627Z,7.50
2023-03-02T04:51:41.441Z,14.00
2023-03-02T04:54:12.037Z,5.50
2023-03-02T04:56:40.524Z,6.75
2023-03-02T04:59:09.914Z,9.50
2023-03-02T05:01:38.868Z,1.00
2023-03-02T05:04:06.934Z,7.00
2023-03-02T05:06:35.936Z,5.50
2023-03-02T05:09:04.915Z,9.75
2023-03-02T05:11:33.044Z,7.75
2023-03-02T05:14:02.107Z,11.50
2023-03-02T05:16:33.077Z,3.00
2023-03-02T05:19:02.084Z,9.00
2023-03-02T05:21:31.670Z,7.00
2023-03-02T05:24:03.872Z,6.50
2023-03-02T05:26:32.205Z,12.25
2023-03-02T05:29:00.835Z,12.25
2023-03-02T05:31:32.086Z,8.50
2023-03-02T05:34:03.311Z,9.50
2023-03-02T05:36:31.401Z,9.00
2023-03-02T05:38:59.580Z,12.75
2023-03-02T05:41:27.668Z,11.25
2023-03-02T05:43:56.224Z,11.00
2023-03-02T05:46:24.328Z,8.00
2023-03-02T05:48:53.850Z,10.00
2023-03-02T05:51:21.977Z,10.00
2023-03-02T05:53:50.346Z,6.50
2023-03-02T05:56:20.809Z,8.00
2023-03-02T05:58:48.859Z,5.50
2023-03-02T06:01:16.946Z,6.25
2023-03-02T06:03:45.027Z,9.50
2023-03-02T06:06:14.624Z,6.50
2023-03-02T06:08:43.297Z,10.00
2023-03-02T06:11:11.424Z,8.00
2023-03-02T06:13:39.983Z,6.75
2023-03-02T06:16:08.848Z,6.50
2023-03-02T06:18:39.175Z,11.50
2023-03-02T06:21:08.465Z,7.25
2023-03-02T06:23:38.638Z,3.75
2023-03-02T06:26:09.981Z,9.00
2023-03-02T06:28:51.565Z,10.00
2023-03-02T06:31:22.311Z,12.00
2023-03-02T06:33:50.856Z,9.75
2023-03-02T06:36:21.507Z,12.50
2023-03-02T06:38:51.638Z,15.25
2023-03-02T06:41:19.732Z,9.00
2023-03-02T06:43:50.262Z,10.50
2023-03-02T06:46:19.828Z,10.50
2023-03-02T06:48:49.385Z,9.00
2023-03-02T06:51:18.198Z,12.50
2023-03-02T06:53:46.625Z,12.00
2023-03-02T06:56:16.219Z,12.00
2023-03-02T06:58:44.550Z,5.00
2023-03-02T07:01:13.389Z,12.00
2023-03-02T07:03:44.137Z,6.25
2023-03-02T07:06:12.735Z,4.50
2023-03-02T07:08:41.500Z,9.25
2023-03-02T07:11:10.949Z,7.00
2023-03-02T07:13:40.426Z,8.50
2023-03-02T07:16:10.579Z,9.50
2023-03-02T07:18:40.378Z,9.75
2023-03-02T07:21:08.873Z,9.25
2023-03-02T07:23:37.137Z,9.75
2023-03-02T07:26:08.590Z,5.50
2023-03-02T07:28:39.552Z,10.00
2023-03-02T07:31:09.363Z,8.00
2023-03-02T07:33:37.675Z,9.75
2023-03-02T07:36:07.038Z,8.50
2023-03-02T07:38:35.192Z,6.00
2023-03-02T07:41:07.851Z,10.00
2023-03-02T07:43:36.705Z,8.75
2023-03-02T07:46:05.070Z,12.75
2023-03-02T07:48:35.372Z,6.25
2023-03-02T07:51:04.028Z,11.00
2023-03-02T07:53:32.147Z,12.00
2023-03-02T07:56:01.481Z,7.00
2023-03-02T07:58:30.006Z,6.75
2023-03-02T08:00:58.241Z,12.50
2023-03-02T08:03:26.793Z,6.60
2023-03-02T08:05:57.250Z,9.20
2023-03-02T08:08:25.338Z,10.50
2023-03-02T08:10:53.427Z,12.25
2023-03-02T08:13:21.527Z,7.00
2023-03-02T08:15:49.780Z,10.40
2023-03-02T08:18:17.849Z,12.60
2023-03-02T08:20:46.445Z,11.80
2023-03-02T08:23:15.956Z,4.80
2023-03-02T08:25:44.189Z,4.40
2023-03-02T08:28:12.666Z,13.40
2023-03-02T08:30:41.450Z,11.00
2023-03-02T08:33:09.506Z,13.00
2023-03-02T08:35:37.641Z,10.00
2023-03-02T08:38:06.243Z,15.60
2023-03-02T08:40:36.268Z,8.40
2023-03-02T08:43:08.218Z,9.00
2023-03-02T08:45:36.729Z,7.80
2023-03-02T08:48:08.188Z,7.00
2023-03-02T08:50:36.327Z,9.00
2023-03-02T08:53:04.803Z,9.00
2023-03-02T08:55:38.012Z,9.40
2023-03-02T08:58:06.783Z,9.00
2023-03-02T09:00:35.155Z,11.80
2023-03-02T09:03:03.334Z,9.60
2023-03-02T09:05:33.560Z,8.20
2023-03-02T09:08:03.720Z,6.40
2023-03-02T09:10:31.802Z,13.40
2023-03-02T09:13:01.391Z,7.80
2023-03-02T09:15:29.631Z,7.00
2023-03-02T09:17:57.976Z,9.40
2023-03-02T09:20:27.132Z,10.00
2023-03-02T09:22:55.173Z,11.00
2023-03-02T09:25:23.349Z,11.00
2023-03-02T09:27:51.635Z,9.40
2023-03-02T09:30:22.141Z,12.60
2023-03-02T09:32:50.497Z,11.80
2023-03-02T09:35:18.844Z,10.80
2023-03-02T09:37:48.682Z,9.80
2023-03-02T09:40:19.527Z,13.00
2023-03-02T09:43:05.836Z,12.60
2023-03-02T09:45:55.343Z,7.40
2023-03-02T09:48:30.503Z,12.20
2023-03-02T09:51:06.603Z,6.80
2023-03-02T09:53:40.954Z,8.00
2023-03-02T09:56:18.815Z,7.00
2023-03-02T09:58:54.694Z,9.20
2023-03-02T10:01:31.006Z,10.00
2023-03-02T10:04:01.210Z,9.80
2023-03-02T10:06:30.471Z,7.40
2023-03-02T10:08:58.734Z,9.60
2023-03-02T10:11:30.754Z,12.20
2023-03-02T10:14:00.398Z,10.40
2023-03-02T10:16:34.562Z,10.00
2023-03-02T10:19:06.745Z,10.80
2023-03-02T10:21:37.478Z,12.00
2023-03-02T10:24:10.666Z,12.20
2023-03-02T10:26:41.261Z,13.40
2023-03-02T10:29:44.769Z,9.20
2023-03-02T10:32:20.257Z,7.40
2023-03-02T10:34:49.989Z,9.80
2023-03-02T10:37:19.169Z,8.20
2023-03-02T10:39:47.868Z,9.00
2023-03-02T10:42:18.494Z,10.80
2023-03-02T10:44:48.525Z,4.00
2023-03-02T10:47:27.901Z,9.40
2023-03-02T10:49:56.805Z,7.00
2023-03-02T10:52:25.668Z,6.80
2023-03-02T10:55:03.462Z,9.00
2023-03-02T10:57:36.235Z,7.00
2023-03-02T11:00:06.083Z,9.00
2023-03-02T11:02:37.494Z,16.00
2023-03-02T11:05:23.788Z,13.00
2023-03-02T11:07:59.378Z,10.60
2023-03-02T11:10:29.726Z,12.60
2023-03-02T11:12:58.488Z,16.00
2023-03-02T11:15:30.650Z,12.40
2023-03-02T11:18:05.664Z,10.40
2023-03-02T11:20:37.653Z,14.20
2023-03-02T11:23:16.962Z,12.80
2023-03-02T11:25:48.806Z,16.40
2023-03-02T11:28:33.248Z,15.40
2023-03-02T11:31:02.170Z,13.80
2023-03-02T11:33:37.342Z,6.80
2023-03-02T11:36:07.578Z,14.80
2023-03-02T11:38:38.768Z,14.60
2023-03-02T11:41:08.245Z,12.60
2023-03-02T11:43:36.760Z,11.20
2023-03-02T11:46:11.236Z,12.40
2023-03-02T11:48:50.994Z,8.60
2023-03-02T11:51:23.857Z,16.80
2023-03-02T11:53:54.397Z,13.40
2023-03-02T11:56:22.731Z,14.60
2023-03-02T11:58:54.674Z,13.20
2023-03-02T12:01:24.301Z,15.60
2023-03-02T12:03:53.952Z,12.00
2023-03-02T12:06:38.678Z,14.20
2023-03-02T12:09:35.312Z,14.60
2023-03-02T12:12:23.858Z,15.60
2023-03-02T12:14:55.399Z,9.60
2023-03-02T12:17:31.723Z,12.20
2023-03-02T12:20:28.907Z,10.00
2023-03-02T12:23:11.366Z,12.60
2023-03-02T12:25:43.950Z,10.20
2023-03-02T12:28:27.935Z,13.60
2023-03-02T12:31:04.241Z,7.00
2023-03-02T12:33:32.461Z,8.60
2023-03-02T12:36:13.906Z,15.60
2023-03-02T12:38:42.629Z,13.00
2023-03-02T12:41:40.378Z,11.80
2023-03-02T12:44:28.266Z,16.80
2023-03-02T12:46:57.871Z,10.80
2023-03-02T12:49:37.593Z,13.00
2023-03-02T12:52:23.839Z,10.80
2023-03-02T12:55:05.672Z,11.20
2023-03-02T12:57:33.775Z,7.60
2023-03-02T13:00:06.912Z,8.60
2023-03-02T13:02:39.840Z,12.80
2023-03-02T13:05:09.313Z,11.20
2023-03-02T13:07:41.266Z,8.60
2023-03-02T13:10:16.142Z,9.00
2023-03-02T13:12:45.913Z,14.60
2023-03-02T13:15:16.804Z,9.80
2023-03-02T13:17:45.434Z,10.40
2023-03-02T13:20:14.919Z,12.40
2023-03-02T13:22:44.817Z,9.80
2023-03-02T13:25:23.380Z,9.60
2023-03-02T13:27:55.470Z,7.40
2023-03-02T13:30:27.501Z,6.20
2023-03-02T13:32:59.586Z,12.20
2023-03-02T13:35:28.307Z,14.20
2023-03-02T13:38:01.767Z,10.80
2023-03-02T13:40:35.556Z,20.60
2023-03-02T13:43:08.908Z,40.60
2023-03-02T13:45:38.208Z,43.00
2023-03-02T13:48:15.507Z,48.80
2023-03-02T13:50:52.712Z,47.40
2023-03-02T13:53:22.183Z,43.60
2023-03-02T13:55:50.281Z,56.80
2023-03-02T13:58:19.298Z,42.20
2023-03-02T14:00:47.378Z,45.80
2023-03-02T14:03:26.321Z,45.40
2023-03-02T14:05:54.472Z,43.60
2023-03-02T14:08:23.920Z,69.25
2023-03-02T14:10:53.291Z,54.80
2023-03-02T14:13:23.963Z,46.80
2023-03-02T14:15:53.967Z,45.00
2023-03-02T14:18:32.259Z,69.60
2023-03-02T14:21:00.432Z,44.40
2023-03-02T14:23:30.108Z,60.20
2023-03-02T14:25:58.184Z,70.80
2023-03-02T14:28:33.456Z,72.75
2023-03-02T14:31:01.855Z,42.20
2023-03-02T14:33:31.226Z,64.80
2023-03-02T14:35:59.605Z,49.00
2023-03-02T14:38:31.390Z,78.50
2023-03-02T14:40:59.639Z,32.00
2023-03-02T14:43:27.828Z,21.60
2023-03-02T14:45:56.150Z,28.40
2023-03-02T14:48:24.659Z,13.60
2023-03-02T14:50:52.824Z,9.80
2023-03-02T14:53:30.592Z,8.00
2023-03-02T14:55:58.988Z,12.00
2023-03-02T14:58:31.154Z,7.00
2023-03-02T15:00:59.304Z,6.60
2023-03-02T15:03:28.504Z,7.40
2023-03-02T15:06:02.062Z,9.20
2023-03-02T15:08:32.265Z,8.40
2023-03-02T15:11:00.482Z,6.80
2023-03-02T15:13:28.547Z,8.20
2023-03-02T15:15:58.651Z,10.00
2023-03-02T15:18:26.860Z,7.40
2023-03-02T15:20:55.266Z,7.40
2023-03-02T15:23:23.587Z,9.00
2023-03-02T15:25:53.490Z,7.80
2023-03-02T15:28:21.644Z,5.20
2023-03-02T15:30:50.260Z,0.80
2023-03-02T15:33:18.561Z,6.60
2023-03-02T15:35:46.830Z,7.00
2023-03-02T15:38:16.623Z,6.00
2023-03-02T15:40:45.152Z,11.60
2023-03-02T15:43:14.767Z,10.00
2023-03-02T15:45:46.389Z,8.00
2023-03-02T15:48:14.406Z,8.60
2023-03-02T15:50:43.111Z,7.80
2023-03-02T15:53:12.411Z,7.80
2023-03-02T15:55:42.368Z,6.20
2023-03-02T15:58:10.626Z,9.00
2023-03-02T16:00:41.016Z,8.60
2023-03-02T16:03:10.276Z,6.80
2023-03-02T16:05:44.003Z,9.60
2023-03-02T16:08:12.046Z,10.80
2023-03-02T16:10:43.116Z,6.00
2023-03-02T16:13:11.467Z,9.60
2023-03-02T16:15:41.666Z,12.20
2023-03-02T16:18:09.664Z,6.80
2023-03-02T16:20:38.408Z,6.60
2023-03-02T16:23:07.958Z,9.60
2023-03-02T16:25:36.855Z,6.40
2023-03-02T16:28:05.604Z,6.40
2023-03-02T16:30:36.228Z,7.00
2023-03-02T16:33:08.545Z,8.80
2023-03-02T16:35:37.141Z,7.40
2023-03-02T16:38:06.560Z,9.20
2023-03-02T16:40:41.748Z,9.40
2023-03-02T16:43:20.537Z,9.00
2023-03-02T16:45:50.120Z,6.60
2023-03-02T16:48:19.583Z,7.80
2023-03-02T16:50:49.421Z,7.80
2023-03-02T16:53:19.448Z,7.00
2023-03-02T16:55:48.637Z,7.60
2023-03-02T16:58:17.429Z,10.00
2023-03-02T17:00:46.086Z,8.20
2023-03-02T17:03:14.510Z,9.40
2023-03-02T17:05:44.331Z,3.80
2023-03-02T17:08:12.667Z,9.00
2023-03-02T17:10:41.196Z,4.00
2023-03-02T17:13:09.658Z,7.00
2023-03-02T17:15:38.459Z,6.60
2023-03-02T17:18:06.947Z,1.80
2023-03-02T17:20:35.889Z,6.40
2023-03-02T17:23:06.091Z,10.80
2023-03-02T17:25:34.237Z,7.00
2023-03-02T17:28:02.563Z,10.20
2023-03-02T17:30:30.720Z,10.00
2023-03-02T17:32:59.078Z,6.20
2023-03-02T17:35:27.076Z,8.60
2023-03-02T17:37:55.359Z,7.00
2023-03-02T17:40:26.172Z,10.00
2023-03-02T17:42:57.382Z,12.00
2023-03-02T17:45:27.065Z,10.80
2023-03-02T17:47:55.601Z,10.00
2023-03-02T17:50:23.874Z,15.60
2023-03-02T17:52:51.951Z,14.80
2023-03-02T17:55:20.046Z,17.40
2023-03-02T17:57:49.544Z,14.80
2023-03-02T18:00:19.367Z,12.40
2023-03-02T18:02:48.002Z,15.60
2023-03-02T18:05:16.095Z,18.00
2023-03-02T18:07:46.046Z,13.40
2023-03-02T18:10:14.105Z,15.40
2023-03-02T18:12:42.147Z,18.40
2023-03-02T18:15:12.904Z,16.20
2023-03-02T18:17:41.098Z,10.80
2023-03-02T18:20:10.045Z,17.80
2023-03-02T18:22:38.146Z,15.20
2023-03-02T18:25:07.066Z,20.40
2023-03-02T18:27:35.113Z,21.40
2023-03-02T18:30:03.710Z,18.60
2023-03-02T18:32:33.473Z,21.00
2023-03-02T18:35:04.803Z,15.00
2023-03-02T18:37:34.094Z,15.00
2023-03-02T18:40:02.527Z,20.80
2023-03-02T18:42:31.422Z,20.80
2023-03-02T18:44:59.745Z,18.20
2023-03-02T18:47:28.312Z,21.20
2023-03-02T18:49:58.652Z,20.20
2023-03-02T18:52:26.679Z,24.40
2023-03-02T18:54:57.846Z,21.00
2023-03-02T18:57:26.051Z,19.80
2023-03-02T18:59:54.203Z,22.40
2023-03-02T19:02:22.401Z,27.00
2023-03-02T19:04:50.569Z,30.00
2023-03-02T19:07:20.100Z,21.40
2023-03-02T19:09:48.668Z,26.60
2023-03-02T19:12:18.550Z,16.20
2023-03-02T19:14:46.803Z,27.80
2023-03-02T19:17:15.293Z,26.60
2023-03-02T19:19:44.523Z,13.80
2023-03-02T19:22:12.567Z,23.80
2023-03-02T19:24:43.264Z,28.00
2023-03-02T19:27:11.801Z,23.40
2023-03-02T19:29:39.870Z,22.80
2023-03-02T19:32:08.441Z,25.20
2023-03-02T19:34:37.957Z,30.00
2023-03-02T19:37:06.231Z,16.60
2023-03-02T19:39:35.056Z,22.00
2023-03-02T19:42:04.928Z,21.20
2023-03-02T19:44:33.239Z,22.00
2023-03-02T19:47:03.068Z,23.80
2023-03-02T19:49:31.077Z,24.60
2023-03-02T19:51:59.107Z,12.40
2023-03-02T19:54:27.159Z,20.20
2023-03-02T19:56:55.310Z,26.00
2023-03-02T19:59:25.080Z,24.20
2023-03-02T20:01:55.259Z,26.00
2023-03-02T20:04:23.363Z,32.40
2023-03-02T20:06:51.428Z,18.40
2023-03-02T20:09:20.560Z,29.20
2023-03-02T20:11:50.726Z,26.80
2023-03-02T20:14:32.751Z,27.80
2023-03-02T20:17:03.272Z,33.40
2023-03-02T20:19:32.297Z,29.60
2023-03-02T20:22:02.826Z,21.60
2023-03-02T20:24:31.345Z,20.20
2023-03-02T20:26:59.938Z,17.20
2023-03-02T20:29:28.028Z,31.20
2023-03-02T20:31:57.224Z,24.40
2023-03-02T20:34:26.668Z,21.60
2023-03-02T20:36:54.912Z,22.40
2023-03-02T20:39:24.661Z,30.40
2023-03-02T20:41:52.695Z,28.20
2023-03-02T20:44:21.022Z,23.40
2023-03-02T20:46:53.220Z,21.60
2023-03-02T20:49:21.511Z,22.50
2023-03-02T20:51:54.620Z,27.25
2023-03-02T20:54:23.647Z,25.75
2023-03-02T20:56:51.735Z,26.60
2023-03-02T20:59:19.818Z,24.25
2023-03-02T21:01:48.194Z,21.75
2023-03-02T21:04:16.729Z,16.25
2023-03-02T21:06:46.569Z,29.75
2023-03-02T21:09:17.042Z,28.75
2023-03-02T21:11:45.636Z,29.00
2023-03-02T21:14:14.570Z,28.00
2023-03-02T21:16:43.679Z,19.50
2023-03-02T21:19:13.867Z,33.25
2023-03-02T21:21:42.630Z,27.75
2023-03-02T21:24:11.109Z,27.25
2023-03-02T21:26:41.573Z,31.75
2023-03-02T21:29:13.120Z,24.25
2023-03-02T21:31:43.263Z,27.75
2023-03-02T21:34:11.761Z,35.25
2023-03-02T21:36:39.863Z,17.25
2023-03-02T21:39:07.971Z,29.00
2023-03-02T21:41:40.425Z,27.25
2023-03-02T21:44:08.745Z,27.25
2023-03-02T21:46:37.246Z,27.75
2023-03-02T21:49:05.324Z,26.25
2023-03-02T21:51:33.557Z,24.00
2023-03-02T21:54:01.687Z,32.00
2023-03-02T21:56:29.764Z,25.25
2023-03-02T21:58:59.186Z,19.75
2023-03-02T22:01:27.516Z,26.75
2023-03-02T22:03:55.773Z,33.00
2023-03-02T22:06:24.698Z,29.50
2023-03-02T22:08:52.732Z,28.50
2023-03-02T22:11:23.038Z,32.50
2023-03-02T22:13:51.426Z,28.50
2023-03-02T22:16:22.264Z,34.00
2023-03-02T22:18:52.166Z,23.00
2023-03-02T22:21:30.065Z,42.00
2023-03-02T22:24:01.775Z,33.75
2023-03-02T22:26:29.927Z,26.25
2023-03-02T22:28:59.727Z,14.25
2023-03-02T22:31:29.333Z,24.00
2023-03-02T22:33:57.354Z,27.50
2023-03-02T22:36:25.688Z,30.00
2023-03-02T22:38:53.732Z,26.50
2023-03-02T22:41:21.756Z,26.25
2023-03-02T22:43:52.942Z,21.75
2023-03-02T22:46:21.942Z,32.50
2023-03-02T22:48:52.258Z,24.75
2023-03-02T22:51:21.130Z,23.00
2023-03-02T22:53:50.306Z,26.00
2023-03-02T22:56:28.519Z,28.00
2023-03-02T22:58:56.938Z,19.25
2023-03-02T23:01:25.530Z,18.75
2023-03-02T23:03:55.589Z,37.75
2023-03-02T23:06:28.792Z,35.00
2023-03-02T23:08:57.684Z,34.75
2023-03-02T23:11:25.829Z,31.50
2023-03-02T23:13:53.972Z,33.00
2023-03-02T23:16:23.088Z,33.50
2023-03-02T23:18:51.422Z,27.25
2023-03-02T23:21:22.467Z,26.75
2023-03-02T23:23:51.146Z,35.50
2023-03-02T23:26:19.904Z,34.75
2023-03-02T23:28:48.997Z,31.00
2023-03-02T23:31:18.352Z,29.75
2023-03-02T23:33:46.737Z,31.25
2023-03-02T23:36:14.935Z,36.00
2023-03-02T23:38:44.451Z,28.00
2023-03-02T23:41:12.497Z,27.50
2023-03-02T23:43:40.978Z,17.00
2023-03-02T23:46:13.897Z,30.75
2023-03-02T23:48:42.204Z,31.00
2023-03-02T23:51:10.340Z,29.75
2023-03-02T23:53:39.117Z,33.50
2023-03-02T23:56:09.009Z,27.50
2023-03-02T23:58:37.089Z,28.00
